Time;durP1;ratioP1;P1;durP2;ratioP2;P2;SDS_P1;SDS_P2;PMS_P1;PMS_P2;Temp;Humidity;BMP_temperature;BMP_pressure;BME280_temperature;BME280_humidity;BME280_pressure;Samples;Min_cycle;Max_cycle;Signal;HPM_P1;HPM_P2
2023/12/20 00:13:07;;;;;;;87.60;32.80;;;;;;;9.43;100.00;99370.48;682293;1259;140194;-80
2023/12/20 00:28:44;;;;;;;46.70;20.70;;;;;;;9.59;100.00;99362.49;682519;1259;140098;-82
2023/12/20 00:44:21;;;;;;;40.40;20.60;;;;;;;9.45;100.00;99372.59;682211;1262;140553;-80
2023/12/20 00:59:58;;;;;;;96.30;33.40;;;;;;;9.35;100.00;99370.10;682038;1261;139660;-81
2023/12/20 01:15:36;;;;;;;89.10;37.10;;;;;;;9.72;100.00;99350.58;682427;1260;139402;-80
2023/12/20 01:31:13;;;;;;;49.80;20.30;;;;;;;9.76;100.00;99340.73;682828;1259;139302;-82
2023/12/20 01:46:52;;;;;;;63.40;24.70;;;;;;;9.71;100.00;99319.58;682748;1262;138603;-81
2023/12/20 02:02:30;;;;;;;37.30;15.60;;;;;;;9.75;100.00;99313.45;682837;1260;138573;-84
2023/12/20 02:18:07;;;;;;;56.00;22.40;;;;;;;9.79;100.00;99289.44;682918;1263;138715;-81
2023/12/20 02:33:43;;;;;;;45.40;20.00;;;;;;;9.83;100.00;99283.67;675275;1260;10135914;-82
2023/12/20 02:49:20;;;;;;;72.80;32.20;;;;;;;9.91;100.00;99270.91;682758;1262;138955;-82
2023/12/20 03:05:00;;;;;;;22.90;11.40;;;;;;;9.90;100.00;99257.11;682866;1263;138619;-82
2023/12/20 03:20:37;;;;;;;17.80;11.20;;;;;;;9.91;100.00;99250.70;682754;1264;139205;-81
2023/12/20 03:36:14;;;;;;;21.20;11.60;;;;;;;10.02;100.00;99247.54;682465;1263;138754;-81
2023/12/20 03:51:52;;;;;;;16.50;10.20;;;;;;;9.91;100.00;99243.05;682568;1263;139010;-82
2023/12/20 04:07:29;;;;;;;24.00;12.20;;;;;;;9.93;100.00;99254.48;682265;1264;139587;-83
2023/12/20 04:23:06;;;;;;;22.80;14.50;;;;;;;9.92;100.00;99244.34;682220;1264;138963;-83
2023/12/20 04:38:43;;;;;;;28.40;15.90;;;;;;;9.38;100.00;99244.69;682608;1262;138665;-81
2023/12/20 04:54:21;;;;;;;40.00;24.90;;;;;;;8.71;100.00;99238.27;682204;1263;138879;-83
2023/12/20 05:09:58;;;;;;;22.60;14.30;;;;;;;8.64;100.00;99239.32;682248;1260;138915;-82
2023/12/20 05:25:35;;;;;;;93.20;30.40;;;;;;;8.60;100.00;99244.88;682141;1263;139284;-85
2023/12/20 05:41:12;;;;;;;136.70;43.90;;;;;;;8.58;100.00;99246.02;682117;1260;139744;-82
2023/12/20 05:56:49;;;;;;;52.40;19.10;;;;;;;8.47;100.00;99252.41;682276;1260;139420;-82
2023/12/20 06:12:28;;;;;;;63.60;25.10;;;;;;;8.47;100.00;99243.84;682251;1263;140921;-82
2023/12/20 06:28:06;;;;;;;;;;;;;;;8.40;100.00;99247.64;682270;1260;139712;-82
2023/12/20 06:43:43;;;;;;;23.20;12.70;;;;;;;8.13;100.00;99254.70;682024;1262;126179;-81
2023/12/20 06:59:20;;;;;;;39.30;23.50;;;;;;;8.00;100.00;99265.29;682138;1263;139827;-81
2023/12/20 07:14:57;;;;;;;62.30;25.00;;;;;;;7.79;100.00;99270.05;682357;1262;138792;-82
2023/12/20 07:30:34;;;;;;;84.60;29.70;;;;;;;8.00;100.00;99268.64;681984;1264;139645;-82
2023/12/20 07:46:15;;;;;;;176.60;68.00;;;;;;;8.16;100.00;99260.82;681777;1265;138906;-82
2023/12/20 08:01:52;;;;;;;65.70;35.00;;;;;;;8.19;100.00;99260.24;681815;1265;138910;-82
2023/12/20 08:17:30;;;;;;;276.60;94.00;;;;;;;8.05;99.89;99264.52;681920;1270;139072;-82
2023/12/20 08:33:12;;;;;;;51.00;26.10;;;;;;;8.10;100.00;99253.09;682189;1266;140443;-82
2023/12/20 08:48:49;;;;;;;34.30;16.70;;;;;;;8.17;100.00;99246.14;682188;1263;139472;-83
2023/12/20 09:04:27;;;;;;;28.60;14.10;;;;;;;8.35;99.48;99251.45;682289;1263;139834;-82
2023/12/20 09:20:06;;;;;;;106.70;36.70;;;;;;;8.33;99.57;99255.58;682169;1263;139058;-83
2023/12/20 09:35:44;;;;;;;47.80;19.40;;;;;;;8.33;100.00;99243.64;682100;1261;138961;-82
2023/12/20 09:51:22;;;;;;;28.90;12.70;;;;;;;9.09;98.53;99214.48;682081;1260;140076;-83
2023/12/20 10:07:01;;;;;;;45.70;17.10;;;;;;;10.88;96.01;99196.08;682010;1261;138899;-80
2023/12/20 10:22:38;;;;;;;;;;;;;;;10.13;89.00;99178.85;682080;1266;138996;-82
2023/12/20 10:38:17;;;;;;;18.20;6.90;;;;;;;8.84;91.26;99173.88;682114;1263;124942;-81
2023/12/20 10:53:54;;;;;;;;;;;;;;;8.60;92.14;99180.07;682167;1260;139159;-80
2023/12/20 11:09:47;;;;;;;48.70;18.20;;;;;;;8.51;92.00;99153.18;682192;1261;125489;-82
2023/12/20 11:25:24;;;;;;;27.10;12.20;;;;;;;8.45;90.33;99131.30;682043;1261;139302;-80
2023/12/20 11:41:03;;;;;;;30.60;13.20;;;;;;;8.79;88.09;99100.45;682187;1263;139548;-82
2023/12/20 11:56:40;;;;;;;13.80;7.70;;;;;;;8.09;90.28;99064.55;682232;1263;138918;-83
2023/12/20 12:12:21;;;;;;;20.20;8.40;;;;;;;8.71;85.95;99034.86;682167;1259;138726;-81
2023/12/20 12:27:58;;;;;;;13.10;6.40;;;;;;;8.74;85.86;99003.36;682190;1259;138392;-81
2023/12/20 12:43:35;;;;;;;16.50;8.40;;;;;;;7.31;92.52;98979.96;682081;1264;138404;-80
2023/12/20 12:59:13;;;;;;;13.00;6.80;;;;;;;7.25;95.56;98954.63;682205;1263;139719;-80
2023/12/20 13:14:50;;;;;;;16.60;8.90;;;;;;;7.58;96.42;98932.09;682240;1260;138301;-81
2023/12/20 13:30:27;;;;;;;68.90;29.00;;;;;;;8.67;90.63;98922.70;682064;1263;138975;-80
2023/12/20 13:46:05;;;;;;;30.70;14.40;;;;;;;8.57;91.32;98907.48;682164;1263;140327;-82
2023/12/20 14:01:42;;;;;;;56.40;27.80;;;;;;;8.58;92.47;98895.20;682243;1263;139872;-81
2023/12/20 14:17:20;;;;;;;32.20;17.20;;;;;;;8.66;92.20;98891.23;682334;1263;140258;-82
2023/12/20 14:32:56;;;;;;;13.80;7.40;;;;;;;8.42;93.74;98882.61;674595;1262;10135290;-80
2023/12/20 14:48:34;;;;;;;10.90;5.80;;;;;;;7.68;99.35;98875.86;682235;1264;139930;-81
2023/12/20 15:04:11;;;;;;;18.00;8.90;;;;;;;7.67;99.97;98863.43;682461;1262;138557;-80
2023/12/20 15:19:51;;;;;;;27.30;11.20;;;;;;;7.74;99.93;98848.06;682208;1259;139786;-80
2023/12/20 15:35:31;;;;;;;17.20;7.90;;;;;;;7.65;99.43;98837.70;682100;1262;139429;-80
2023/12/20 15:51:11;;;;;;;13.60;7.10;;;;;;;7.74;98.90;98816.92;682159;1259;139080;-81
2023/12/20 16:06:49;;;;;;;22.70;9.20;;;;;;;7.81;97.92;98795.36;682195;1262;140029;-79
2023/12/20 16:22:32;;;;;;;25.20;11.00;;;;;;;7.82;98.03;98767.80;682332;1262;139495;-81
2023/12/20 16:38:10;;;;;;;16.50;9.60;;;;;;;7.89;96.60;98735.23;682172;1259;139656;-81
2023/12/20 16:53:48;;;;;;;22.20;9.60;;;;;;;7.93;96.48;98719.67;682257;1262;139586;-80
2023/12/20 17:09:48;;;;;;;31.50;13.10;;;;;;;7.68;98.11;98700.30;682356;1264;139155;-81
2023/12/20 17:25:25;;;;;;;12.40;6.60;;;;;;;7.56;98.49;98697.66;682425;1262;139632;-80
2023/12/20 17:41:02;;;;;;;12.20;5.90;;;;;;;7.49;99.46;98692.56;682311;1262;139310;-82
2023/12/20 17:56:39;;;;;;;31.40;12.90;;;;;;;7.62;99.30;98694.40;682294;1262;138549;-81
2023/12/20 18:12:17;;;;;;;37.20;17.30;;;;;;;7.82;97.84;98708.83;682383;1264;138749;-81
2023/12/20 18:27:58;;;;;;;14.30;6.50;;;;;;;7.89;96.44;98728.05;682899;1263;139506;-81
2023/12/20 18:43:35;;;;;;;19.70;6.50;;;;;;;7.68;94.45;98724.81;681903;1262;139170;-81
2023/12/20 18:59:13;;;;;;;44.00;15.70;;;;;;;7.60;92.73;98733.11;682063;1262;138477;-83
2023/12/20 19:14:49;;;;;;;34.80;15.00;;;;;;;6.69;95.24;98752.13;682176;1263;138907;-82
2023/12/20 19:30:26;;;;;;;33.20;13.40;;;;;;;7.05;91.55;98757.59;682141;1265;139721;-82
2023/12/20 19:46:06;;;;;;;10.10;4.10;;;;;;;6.84;90.41;98774.58;682273;1262;138940;-82
2023/12/20 20:01:44;;;;;;;14.40;6.10;;;;;;;6.17;93.34;98781.73;682118;1263;139665;-81
2023/12/20 20:17:23;;;;;;;15.30;6.80;;;;;;;5.71;97.65;98785.06;682173;1260;138415;-82
2023/12/20 20:33:00;;;;;;;9.80;4.20;;;;;;;5.52;98.84;98793.77;682352;1265;138617;-80
2023/12/20 20:48:40;;;;;;;8.10;4.40;;;;;;;5.37;99.10;98794.00;681993;1259;138524;-81
2023/12/20 21:04:22;;;;;;;11.70;5.00;;;;;;;5.43;99.02;98795.09;682118;1263;138388;-82
2023/12/20 21:20:00;;;;;;;15.90;5.20;;;;;;;5.40;98.18;98789.39;682131;1263;138655;-80
2023/12/20 21:35:37;;;;;;;15.40;5.00;;;;;;;5.47;96.69;98792.23;682207;1260;138381;-82
2023/12/20 21:51:15;;;;;;;13.00;5.50;;;;;;;5.46;94.64;98802.61;682209;1263;139284;-81
2023/12/20 22:06:51;;;;;;;12.20;5.50;;;;;;;5.31;96.97;98823.52;682017;1263;138818;-82
2023/12/20 22:22:29;;;;;;;13.90;7.10;;;;;;;4.95;98.41;98827.36;682004;1263;138362;-80
2023/12/20 22:38:06;;;;;;;28.30;12.40;;;;;;;4.88;99.75;98816.89;681888;1265;139231;-81
2023/12/20 22:53:42;;;;;;;24.20;8.70;;;;;;;4.93;99.93;98821.48;682280;1262;139107;-80
2023/12/20 23:09:20;;;;;;;33.00;9.90;;;;;;;4.83;99.66;98806.65;682194;1263;138170;-81
2023/12/20 23:24:57;;;;;;;27.70;9.90;;;;;;;5.62;94.64;98797.69;681838;1264;138654;-82
2023/12/20 23:40:34;;;;;;;16.10;6.70;;;;;;;5.88;90.06;98785.41;682003;1265;138311;-82
2023/12/20 23:56:11;;;;;;;23.00;9.50;;;;;;;5.82;89.62;98780.80;682005;1265;138681;-81
